Impacts TAF Board INFO
FOR SITUATIONAL AWARENESS. NOT TO BE USED FOR FLIGHT PLANNING PURPOSES.
IDs:

KMEI - Meridian/Key Fld, MS, US

Issued at 1741 UTC 21 Nov 2017
Updated at 2247 UTC 21 Nov 2017
Potential Impact None Slight Moderate High
Time2158Z 21/23Z 22/00Z 22/01Z 22/02Z 22/03Z 22/04Z 22/05Z 22/06Z 22/07Z 22/08Z 22/09Z 22/10Z 22/11Z>>
Type OBS PRVL PRVL PRVL PRVL PRVL PRVL PRVL PRVL PRVL PRVL PRVL PRVL PRVL
VIS 10 >6 >6 >6 >6 >6 >6 >6 >6 >6 >6 >6 >6 >6
CIG 110 -- -- -- -- -- -- -- -- -- -- -- -- --
Cover OVC FEW FEW FEW FEW FEW FEW FEW FEW FEW FEW FEW FEW FEW
FltCat VFR VFR VFR VFR VFR VFR VFR VFR VFR VFR VFR VFR VFR VFR
WX -- -- -- -- -- -- -- -- -- -- -- -- -- --
WDir 350 260 260 260 260 260 260 260 260 260 260 260 260 260
WSpd 5 3 3 3 3 3 3 3 3 3 3 3 3 3
WGst -- -- -- -- -- -- -- -- -- -- -- -- -- --

Raw TAF
KMEI 211741Z 2118/2218 26003KT P6SM FEW150 FEW250

Raw METAR
KMEI 212158Z 35005KT 10SM OVC110 18/08 A3000 RMK AO2 SLP157 T01780078
KMEI 212058Z 02003KT 10SM BKN100 19/08 A3000 RMK AO2 SLP156 T01890078 56013
KMEI 211958Z 01004KT 10SM CLR 19/08 A3000 RMK AO2 SLP156 T01940078

METAR Board
Radar Display
Forecast Discussion

FOR SITUATIONAL AWARENESS. NOT TO BE USED FOR FLIGHT PLANNING PURPOSES.